Portada
METAR-TAF:

METAR-TAF

Aeroports :

Aeroport Internacional de Tan Son Nhat

Ciutat Ho Chi Minh, Vietnam

latitud: 10-49N, longitud: 106-40E, altitud: 19 m

Observació

L'informe es va fer fa 15 minuts, a les 08:30 UTC
Vent 5 kt del Sud-Est, variant entre Est/Nord-Est i Sud
Temperatura 33°C
Humitat 46%
Pressió 1010 hPa
Visibilitat 10 km o més
Cel ennuvolat a una alçada de 2000 ft

METAR: VVTS 220830Z 13005KT 070V180 9999 BKN020 33/20 Q1010 NOSIG

Hora: 15:45 (08:45 UTC)

Pronòstic

L'informe es va fer fa 3 hores i 45 minuts, a les 05:00 UTC
Pronòstic vàlid del 22 a les 06 UTC al 23 a les 12 UTC
Vent 10 kt del Sud-Est
Visibilitat 10 km o més
Escasses núvols a una alçada de 1700 ft

TAF: VVTS 220500Z 2206/2312 13010KT 9999 FEW017

Observacions i pronòstics meteorològics de més de 4000 aeroports (METAR i TAF).

Les estacions disponibles són els punts grocs i vermells al mapa.

Posi el ratolí al punt desitjat per veure el nom de l'estació.

Feu clic per veure les observacions i els pronòstics meteorològics.

Per canviar el mapa: feu clic els botons verds amb una creu de color negre per apropar; al botó verd amb un guió per allunyar la imatge; o en les fletxes verdes per a mapes adjacents.


METAR-TAF: